Terminal Aerodrome Forecast
Issued by NWS Charleston, WV

Home | Current Version | Previous Version | Text Only | Print | Product List | Glossary On
Versions: 1 2 3 4 5 6 7 8 9 10 11 12 13 14 15 16 17 18 19 20 21 22 23 24
701
FTUS41 KRLX 050404 AAB
TAFCRW
TAF AMD
KCRW 050404Z 0504/0524 30004KT 2SM -SHRA BR BKN015
     FM050700 33005KT 5SM BR SCT008 BKN015
     FM051000 28005KT P6SM SHRA BKN008
     FM051500 26005KT 5SM SHRA BR BKN015
     FM051900 29005KT 3SM SHRA BR OVC015=

USA.gov is the U.S. government's official web portal to all federal, state and local government web resources and services.